Time,TemperatureF,DewpointF,PressureIn,WindDirection,WindDirectionDegrees,WindSpeedMPH,WindSpeedGustMPH,Humidity,HourlyPrecipIn,Conditions,Clouds,dailyrainin,SoftwareType,DateUTC
2013-01-26 00:00:00,21.9,12.6,30.08,NNW,344,4.6,4.6,67,0.00,OVC,,0.00,WeatherDisplay:10.37,2013-01-26 05:00:00,
2013-01-26 00:02:00,21.9,12.6,30.08,NNW,330,4.6,4.6,67,0.00,OVC,,0.00,WeatherDisplay:10.37,2013-01-26 05:02:00,
2013-01-26 00:07:00,21.7,12.5,30.08,WNW,283,4.6,4.6,67,0.00,OVC,,0.00,WeatherDisplay:10.37,2013-01-26 05:07:00,
2013-01-26 00:12:00,21.7,12.5,30.08,West,278,4.6,4.6,67,0.00,OVC,,0.00,WeatherDisplay:10.37,2013-01-26 05:12:00,
2013-01-26 00:17:00,21.9,12.6,30.08,West,265,4.6,4.6,67,0.00,OVC,,0.00,WeatherDisplay:10.37,2013-01-26 05:17:00,
2013-01-26 00:22:00,21.9,12.6,30.08,NW,318,4.6,4.6,67,0.00,OVC,,0.00,WeatherDisplay:10.37,2013-01-26 05:22:00,
2013-01-26 00:27:00,21.9,12.6,30.08,NNW,329,4.6,4.8,67,0.00,OVC,,0.00,WeatherDisplay:10.37,2013-01-26 05:27:00,
2013-01-26 00:32:00,21.9,12.6,30.08,West,266,4.6,4.6,67,0.00,OVC,,0.00,WeatherDisplay:10.37,2013-01-26 05:32:00,
2013-01-26 00:37:00,22.1,12.8,30.08,WNW,301,5.8,0.0,67,0.00,OVC,,0.00,WeatherDisplay:10.37,2013-01-26 05:37:00,
2013-01-26 00:42:00,21.9,12.6,30.08,WNW,285,6.9,6.9,67,0.00,OVC,,0.00,WeatherDisplay:10.37,2013-01-26 05:42:00,
2013-01-26 00:47:00,21.9,12.6,30.08,WNW,291,4.6,4.6,67,0.00,OVC,,0.00,WeatherDisplay:10.37,2013-01-26 05:47:00,
2013-01-26 00:52:00,21.9,12.6,30.08,WNW,295,4.6,4.6,67,0.00,OVC,,0.00,WeatherDisplay:10.37,2013-01-26 05:52:00,
2013-01-26 00:57:00,21.9,12.6,30.08,NW,313,4.6,0.0,67,0.00,OVC,,0.00,WeatherDisplay:10.37,2013-01-26 05:57:00,
2013-01-26 01:02:00,21.9,13.0,30.08,NW,312,5.8,5.8,68,0.00,OVC,,0.00,WeatherDisplay:10.37,2013-01-26 06:02:00,
2013-01-26 01:07:00,21.7,12.8,30.08,WNW,284,6.9,6.9,68,0.00,OVC,,0.00,WeatherDisplay:10.37,2013-01-26 06:07:00,
2013-01-26 01:12:00,21.7,12.8,30.08,NW,308,5.8,5.8,68,0.00,OVC,,0.00,WeatherDisplay:10.37,2013-01-26 06:12:00,
2013-01-26 01:17:00,21.7,12.8,30.08,NNW,331,3.5,0.0,68,0.00,OVC,,0.00,WeatherDisplay:10.37,2013-01-26 06:17:00,
2013-01-26 01:22:00,21.7,12.8,30.08,NW,325,4.6,4.6,68,0.00,OVC,,0.00,WeatherDisplay:10.37,2013-01-26 06:22:00,
2013-01-26 01:27:00,21.9,13.0,30.08,NW,316,3.5,3.5,68,0.00,OVC,,0.00,WeatherDisplay:10.37,2013-01-26 06:27:00,
2013-01-26 01:32:00,21.9,13.0,30.08,NW,317,2.3,0.0,68,0.00,OVC,,0.00,WeatherDisplay:10.37,2013-01-26 06:32:00,
2013-01-26 01:37:00,21.9,13.0,30.08,NNW,334,3.5,0.0,68,0.00,OVC,,0.00,WeatherDisplay:10.37,2013-01-26 06:37:00,
2013-01-26 01:42:00,21.7,12.8,30.08,NNW,337,0.0,0.0,68,0.00,OVC,,0.00,WeatherDisplay:10.37,2013-01-26 06:42:00,
2013-01-26 01:47:00,21.7,12.8,30.08,NNE,33,4.6,4.6,68,0.00,OVC,,0.00,WeatherDisplay:10.37,2013-01-26 06:47:00,
2013-01-26 01:52:00,21.9,13.0,30.08,NNE,15,4.1,0.0,68,0.00,OVC,,0.00,WeatherDisplay:10.37,2013-01-26 06:52:00,
2013-01-26 01:57:00,21.9,13.0,30.08,NNW,345,3.5,3.5,68,0.00,OVC,,0.00,WeatherDisplay:10.37,2013-01-26 06:57:00,
2013-01-26 02:02:00,21.9,13.0,30.08,NNW,331,3.5,0.0,68,0.00,BKN,OVC,0.00,WeatherDisplay:10.37,2013-01-26 07:02:00,
2013-01-26 02:07:00,21.7,12.8,30.08,NW,325,3.5,0.0,68,0.00,BKN,OVC,0.00,WeatherDisplay:10.37,2013-01-26 07:07:00,
2013-01-26 02:12:00,21.7,12.8,30.08,NNW,334,3.5,3.5,68,0.00,BKN,OVC,0.00,WeatherDisplay:10.37,2013-01-26 07:12:00,
2013-01-26 02:17:00,21.7,12.8,30.08,NW,317,0.0,0.0,68,0.00,BKN,OVC,0.00,WeatherDisplay:10.37,2013-01-26 07:17:00,
2013-01-26 02:22:00,21.9,13.0,30.08,NNW,331,2.3,0.0,68,0.00,BKN,OVC,0.00,WeatherDisplay:10.37,2013-01-26 07:22:00,
2013-01-26 02:27:00,21.9,13.0,30.08,NNW,340,3.5,0.0,68,0.00,BKN,OVC,0.00,WeatherDisplay:10.37,2013-01-26 07:27:00,
2013-01-26 02:32:00,21.7,12.8,30.08,NNW,340,0.0,0.0,68,0.00,BKN,OVC,0.00,WeatherDisplay:10.37,2013-01-26 07:32:00,
2013-01-26 02:37:00,21.7,12.8,30.08,NNW,340,0.0,0.0,68,0.00,BKN,OVC,0.00,WeatherDisplay:10.37,2013-01-26 07:37:00,
2013-01-26 02:42:00,21.7,12.8,30.08,NNW,340,0.0,0.0,68,0.00,BKN,OVC,0.00,WeatherDisplay:10.37,2013-01-26 07:42:00,
2013-01-26 02:47:00,21.7,12.8,30.11,NNW,340,0.0,0.0,68,0.00,BKN,OVC,0.00,WeatherDisplay:10.37,2013-01-26 07:47:00,
2013-01-26 02:52:00,21.7,12.8,30.11,NNW,340,0.0,0.0,68,0.00,BKN,OVC,0.00,WeatherDisplay:10.37,2013-01-26 07:52:00,
2013-01-26 02:57:00,21.9,13.0,30.11,NNW,340,0.0,0.0,68,0.00,BKN,OVC,0.00,WeatherDisplay:10.37,2013-01-26 07:57:00,
2013-01-26 03:02:00,21.7,12.5,30.11,NNW,328,3.5,0.0,67,0.00,SCT,OVC,0.00,WeatherDisplay:10.37,2013-01-26 08:02:00,
2013-01-26 03:07:00,21.7,12.8,30.11,NNW,328,2.3,0.0,68,0.00,SCT,OVC,0.00,WeatherDisplay:10.37,2013-01-26 08:07:00,
2013-01-26 03:12:00,21.7,12.5,30.11,NNW,328,0.0,0.0,67,0.00,SCT,OVC,0.00,WeatherDisplay:10.37,2013-01-26 08:12:00,
2013-01-26 03:17:00,21.9,12.6,30.11,NNW,328,0.0,0.0,67,0.00,SCT,OVC,0.00,WeatherDisplay:10.37,2013-01-26 08:17:00,
2013-01-26 03:22:00,21.7,12.8,30.11,NNW,327,0.0,0.0,68,0.00,SCT,OVC,0.00,WeatherDisplay:10.37,2013-01-26 08:22:00,
2013-01-26 03:27:00,21.9,13.0,30.11,NNW,328,0.0,0.0,68,0.00,SCT,OVC,0.00,WeatherDisplay:10.37,2013-01-26 08:27:00,
2013-01-26 03:32:00,21.9,13.0,30.11,NW,310,4.6,4.6,68,0.00,SCT,OVC,0.00,WeatherDisplay:10.37,2013-01-26 08:32:00,
2013-01-26 03:37:00,21.9,13.0,30.11,WNW,292,2.3,0.0,68,0.00,SCT,OVC,0.00,WeatherDisplay:10.37,2013-01-26 08:37:00,
2013-01-26 03:42:00,21.9,13.0,30.11,NNW,327,3.5,0.0,68,0.00,SCT,OVC,0.00,WeatherDisplay:10.37,2013-01-26 08:42:00,
2013-01-26 03:47:00,21.9,13.3,30.11,NW,318,3.5,0.0,69,0.00,SCT,OVC,0.00,WeatherDisplay:10.37,2013-01-26 08:47:00,
2013-01-26 03:52:00,22.1,13.5,30.11,WNW,285,4.6,4.6,69,0.00,SCT,OVC,0.00,WeatherDisplay:10.37,2013-01-26 08:52:00,
2013-01-26 03:57:00,22.3,13.6,30.11,NNW,330,3.5,3.5,69,0.00,SCT,OVC,0.00,WeatherDisplay:10.37,2013-01-26 08:57:00,
2013-01-26 04:02:00,22.3,13.6,30.11,NW,319,4.6,4.6,69,0.00,SCT,OVC,0.00,WeatherDisplay:10.37,2013-01-26 09:02:00,
2013-01-26 04:07:00,22.3,13.6,30.11,NW,319,3.5,3.5,69,0.00,SCT,OVC,0.00,WeatherDisplay:10.37,2013-01-26 09:07:00,
2013-01-26 04:12:00,22.3,13.6,30.11,WNW,301,4.6,4.6,69,0.00,SCT,OVC,0.00,WeatherDisplay:10.37,2013-01-26 09:12:00,
2013-01-26 04:17:00,22.5,13.5,30.11,NW,322,0.0,0.0,68,0.00,SCT,OVC,0.00,WeatherDisplay:10.37,2013-01-26 09:17:00,
2013-01-26 04:22:00,22.5,13.5,30.11,NNW,334,4.1,4.1,68,0.00,SCT,OVC,0.00,WeatherDisplay:10.37,2013-01-26 09:22:00,
2013-01-26 04:27:00,22.5,13.5,30.11,NNW,333,4.6,4.6,68,0.00,SCT,OVC,0.00,WeatherDisplay:10.37,2013-01-26 09:27:00,
2013-01-26 04:32:00,22.6,13.7,30.11,WNW,295,4.6,4.6,68,0.00,SCT,OVC,0.00,WeatherDisplay:10.37,2013-01-26 09:32:00,
2013-01-26 04:37:00,22.6,13.3,30.11,NW,316,3.5,3.5,67,0.00,SCT,OVC,0.00,WeatherDisplay:10.37,2013-01-26 09:37:00,
2013-01-26 04:42:00,22.6,13.3,30.11,NW,326,5.8,5.8,67,0.00,SCT,OVC,0.00,WeatherDisplay:10.37,2013-01-26 09:42:00,
2013-01-26 04:47:00,22.6,13.3,30.11,NW,320,4.1,4.1,67,0.00,SCT,OVC,0.00,WeatherDisplay:10.37,2013-01-26 09:47:00,
2013-01-26 04:52:00,22.6,13.0,30.11,NW,319,5.8,5.8,66,0.00,SCT,OVC,0.00,WeatherDisplay:10.37,2013-01-26 09:52:00,
2013-01-26 04:57:00,22.5,12.8,30.11,NNW,348,0.0,0.0,66,0.00,SCT,OVC,0.00,WeatherDisplay:10.37,2013-01-26 09:57:00,
2013-01-26 05:02:00,22.6,13.0,30.11,NW,314,3.5,0.0,66,0.00,SCT,OVC,0.00,WeatherDisplay:10.37,2013-01-26 10:02:00,
2013-01-26 05:07:00,22.6,13.0,30.11,NW,316,3.5,0.0,66,0.00,SCT,OVC,0.00,WeatherDisplay:10.37,2013-01-26 10:07:00,
2013-01-26 05:12:00,22.6,13.0,30.11,NNW,342,4.6,4.6,66,0.00,SCT,OVC,0.00,WeatherDisplay:10.37,2013-01-26 10:12:00,
2013-01-26 05:17:00,22.6,12.6,30.14,NNW,329,4.6,0.0,65,0.00,SCT,OVC,0.00,WeatherDisplay:10.37,2013-01-26 10:17:00,
2013-01-26 05:22:00,22.6,12.6,30.14,NW,325,3.5,0.0,65,0.00,SCT,OVC,0.00,WeatherDisplay:10.37,2013-01-26 10:22:00,
2013-01-26 05:27:00,22.8,12.8,30.14,NW,325,0.0,0.0,65,0.00,SCT,OVC,0.00,WeatherDisplay:10.37,2013-01-26 10:27:00,
2013-01-26 05:32:00,22.8,12.8,30.14,NW,325,0.0,0.0,65,0.00,SCT,OVC,0.00,WeatherDisplay:10.37,2013-01-26 10:32:00,
2013-01-26 05:37:00,22.8,12.8,30.14,NW,325,0.0,0.0,65,0.00,SCT,OVC,0.00,WeatherDisplay:10.37,2013-01-26 10:37:00,
2013-01-26 05:42:00,22.8,12.8,30.14,NW,315,4.6,4.6,65,0.00,SCT,OVC,0.00,WeatherDisplay:10.37,2013-01-26 10:42:00,
2013-01-26 05:47:00,22.8,12.8,30.14,NW,313,0.0,0.0,65,0.00,SCT,OVC,0.00,WeatherDisplay:10.37,2013-01-26 10:47:00,
2013-01-26 05:52:00,22.8,12.5,30.14,NW,325,3.5,3.5,64,0.00,SCT,OVC,0.00,WeatherDisplay:10.37,2013-01-26 10:52:00,
2013-01-26 05:57:00,22.8,12.5,30.14,West,262,3.1,0.0,64,0.00,SCT,OVC,0.00,WeatherDisplay:10.37,2013-01-26 10:57:00,
2013-01-26 06:02:00,22.8,12.1,30.14,West,268,3.5,3.5,63,0.00,SCT,OVC,0.00,WeatherDisplay:10.37,2013-01-26 11:02:00,
2013-01-26 06:07:00,22.8,12.1,30.14,West,270,4.6,0.0,63,0.00,SCT,OVC,0.00,WeatherDisplay:10.37,2013-01-26 11:07:00,
2013-01-26 06:12:00,22.8,12.1,30.14,WNW,294,4.1,0.0,63,0.00,SCT,OVC,0.00,WeatherDisplay:10.37,2013-01-26 11:12:00,
2013-01-26 06:17:00,22.8,12.1,30.17,West,264,4.6,0.0,63,0.00,SCT,OVC,0.00,WeatherDisplay:10.37,2013-01-26 11:17:00,
2013-01-26 06:22:00,22.8,12.1,30.17,WNW,288,3.5,0.0,63,0.00,SCT,OVC,0.00,WeatherDisplay:10.37,2013-01-26 11:22:00,
2013-01-26 06:27:00,22.8,12.1,30.17,West,274,3.1,0.0,63,0.00,SCT,OVC,0.00,WeatherDisplay:10.37,2013-01-26 11:27:00,
2013-01-26 06:32:00,22.8,11.7,30.17,WNW,295,3.5,0.0,62,0.00,SCT,OVC,0.00,WeatherDisplay:10.37,2013-01-26 11:32:00,
2013-01-26 06:37:00,22.8,12.1,30.17,WSW,258,3.5,3.5,63,0.00,SCT,OVC,0.00,WeatherDisplay:10.37,2013-01-26 11:37:00,
2013-01-26 06:42:00,22.8,12.1,30.17,NW,322,3.5,0.0,63,0.00,SCT,OVC,0.00,WeatherDisplay:10.37,2013-01-26 11:42:00,
2013-01-26 06:47:00,22.8,12.1,30.17,West,272,4.6,4.6,63,0.00,SCT,OVC,0.00,WeatherDisplay:10.37,2013-01-26 11:47:00,
2013-01-26 06:52:00,22.8,12.1,30.17,SW,226,3.6,0.0,63,0.00,SCT,OVC,0.00,WeatherDisplay:10.37,2013-01-26 11:52:00,
2013-01-26 06:57:00,22.8,12.1,30.17,NW,318,3.5,0.0,63,0.00,SCT,OVC,0.00,WeatherDisplay:10.37,2013-01-26 11:57:00,
2013-01-26 07:02:00,22.8,12.1,30.17,South,178,3.5,0.0,63,0.00,OVC,,0.00,WeatherDisplay:10.37,2013-01-26 12:02:00,
2013-01-26 07:07:00,22.8,12.1,30.17,WNW,294,4.1,4.1,63,0.00,OVC,,0.00,WeatherDisplay:10.37,2013-01-26 12:07:00,
2013-01-26 07:12:00,23.0,12.3,30.17,West,259,3.5,0.0,63,0.00,OVC,,0.00,WeatherDisplay:10.37,2013-01-26 12:12:00,
2013-01-26 07:17:00,23.0,12.3,30.17,WNW,294,0.0,0.0,63,0.00,OVC,,0.00,WeatherDisplay:10.37,2013-01-26 12:17:00,
2013-01-26 07:22:00,23.0,11.9,30.17,NW,311,3.5,0.0,62,0.00,OVC,,0.00,WeatherDisplay:10.37,2013-01-26 12:22:00,
2013-01-26 07:27:00,23.0,11.9,30.17,WSW,258,2.3,0.0,62,0.00,OVC,,0.00,WeatherDisplay:10.37,2013-01-26 12:27:00,
2013-01-26 07:32:00,22.8,11.7,30.20,NNW,331,3.5,3.5,62,0.00,OVC,,0.00,WeatherDisplay:10.37,2013-01-26 12:32:00,
2013-01-26 07:37:00,23.0,11.9,30.20,NW,306,3.6,0.0,62,0.00,OVC,,0.00,WeatherDisplay:10.37,2013-01-26 12:37:00,
2013-01-26 07:42:00,23.0,11.9,30.20,West,263,3.5,3.5,62,0.00,OVC,,0.00,WeatherDisplay:10.37,2013-01-26 12:42:00,
2013-01-26 07:47:00,23.2,12.1,30.20,NW,322,3.5,3.5,62,0.00,OVC,,0.00,WeatherDisplay:10.37,2013-01-26 12:47:00,
2013-01-26 07:52:00,23.0,11.9,30.20,WNW,301,5.8,5.8,62,0.00,OVC,,0.00,WeatherDisplay:10.37,2013-01-26 12:52:00,
2013-01-26 07:57:00,23.0,11.9,30.20,WNW,290,5.8,5.8,62,0.00,OVC,,0.00,WeatherDisplay:10.37,2013-01-26 12:57:00,
2013-01-26 08:02:00,23.0,11.9,30.20,NW,316,3.5,0.0,62,0.00,OVC,,0.00,WeatherDisplay:10.37,2013-01-26 13:02:00,
2013-01-26 08:07:00,23.2,12.1,30.20,WNW,289,4.6,4.6,62,0.00,OVC,,0.00,WeatherDisplay:10.37,2013-01-26 13:07:00,
2013-01-26 08:12:00,23.4,12.2,30.20,SSW,213,4.6,4.6,62,0.00,OVC,,0.00,WeatherDisplay:10.37,2013-01-26 13:12:00,
2013-01-26 08:17:00,23.5,12.4,30.20,NW,321,3.5,0.0,62,0.00,OVC,,0.00,WeatherDisplay:10.37,2013-01-26 13:17:00,
2013-01-26 08:22:00,23.5,12.1,30.20,WNW,297,4.6,4.6,61,0.00,OVC,,0.00,WeatherDisplay:10.37,2013-01-26 13:22:00,
2013-01-26 08:27:00,23.7,12.2,30.20,WNW,283,4.6,4.6,61,0.00,OVC,,0.00,WeatherDisplay:10.37,2013-01-26 13:27:00,
2013-01-26 08:32:00,23.9,12.4,30.20,West,281,3.5,3.5,61,0.00,OVC,,0.00,WeatherDisplay:10.37,2013-01-26 13:32:00,
2013-01-26 08:37:00,24.1,12.6,30.20,NW,312,4.6,0.0,61,0.00,OVC,,0.00,WeatherDisplay:10.37,2013-01-26 13:37:00,
2013-01-26 08:43:00,24.3,12.7,30.20,WNW,297,0.0,0.0,61,0.00,OVC,,0.00,WeatherDisplay:10.37,2013-01-26 13:43:00,
2013-01-26 08:48:00,24.4,12.9,30.20,WNW,299,3.5,3.5,61,0.00,OVC,,0.00,WeatherDisplay:10.37,2013-01-26 13:48:00,
2013-01-26 08:53:00,24.6,12.7,30.20,WNW,301,4.6,4.6,60,0.00,OVC,,0.00,WeatherDisplay:10.37,2013-01-26 13:53:00,
2013-01-26 08:58:00,24.6,12.3,30.20,WNW,283,4.6,4.6,59,0.00,OVC,,0.00,WeatherDisplay:10.37,2013-01-26 13:58:00,
2013-01-26 09:03:00,24.8,12.5,30.20,WNW,285,4.1,0.0,59,0.00,OVC,,0.00,WeatherDisplay:10.37,2013-01-26 14:03:00,
2013-01-26 09:08:00,25.0,11.9,30.20,NNW,348,4.6,4.6,57,0.00,OVC,,0.00,WeatherDisplay:10.37,2013-01-26 14:08:00,
2013-01-26 09:13:00,25.0,11.9,30.20,North,357,3.5,3.9,57,0.00,OVC,,0.00,WeatherDisplay:10.37,2013-01-26 14:13:00,
2013-01-26 09:18:00,25.2,11.6,30.20,WNW,288,3.6,0.0,56,0.00,OVC,,0.00,WeatherDisplay:10.37,2013-01-26 14:18:00,
2013-01-26 09:23:00,25.3,11.4,30.20,NW,318,6.9,6.9,55,0.00,OVC,,0.00,WeatherDisplay:10.37,2013-01-26 14:23:00,
2013-01-26 09:28:00,25.3,11.0,30.23,NW,324,4.6,4.6,54,0.00,OVC,,0.00,WeatherDisplay:10.37,2013-01-26 14:28:00,
2013-01-26 09:33:00,25.5,11.2,30.23,NNW,345,3.5,0.0,54,0.00,OVC,,0.00,WeatherDisplay:10.37,2013-01-26 14:33:00,
2013-01-26 09:38:00,25.7,10.5,30.23,NNW,337,4.6,0.0,52,0.00,OVC,,0.00,WeatherDisplay:10.37,2013-01-26 14:38:00,
2013-01-26 09:43:00,25.9,11.1,30.23,NW,317,3.5,3.5,53,0.00,OVC,,0.00,WeatherDisplay:10.37,2013-01-26 14:43:00,
2013-01-26 09:48:00,26.2,11.0,30.23,NW,322,4.6,4.6,52,0.00,OVC,,0.00,WeatherDisplay:10.37,2013-01-26 14:48:00,
2013-01-26 09:53:00,26.2,10.1,30.23,NW,322,6.9,6.9,50,0.00,OVC,,0.00,WeatherDisplay:10.37,2013-01-26 14:53:00,
2013-01-26 09:58:00,26.4,10.7,30.23,NW,312,5.8,5.8,51,0.00,OVC,,0.00,WeatherDisplay:10.37,2013-01-26 14:58:00,
2013-01-26 10:03:00,26.6,10.9,30.23,North,353,3.5,3.5,51,0.00,OVC,,0.00,WeatherDisplay:10.37,2013-01-26 15:03:00,
2013-01-26 10:08:00,26.6,10.4,30.23,NW,320,7.7,7.7,50,0.00,OVC,,0.00,WeatherDisplay:10.37,2013-01-26 15:08:00,
2013-01-26 10:13:00,26.8,10.6,30.23,NW,313,6.7,6.7,50,0.00,OVC,,0.00,WeatherDisplay:10.37,2013-01-26 15:13:00,
2013-01-26 10:18:00,27.0,10.8,30.23,NW,322,5.8,5.8,50,0.00,OVC,,0.00,WeatherDisplay:10.37,2013-01-26 15:18:00,
2013-01-26 10:23:00,27.1,10.5,30.23,NW,321,5.8,5.8,49,0.00,OVC,,0.00,WeatherDisplay:10.37,2013-01-26 15:23:00,
2013-01-26 10:28:00,27.3,10.6,30.23,NNW,330,6.9,6.9,49,0.00,OVC,,0.00,WeatherDisplay:10.37,2013-01-26 15:28:00,
2013-01-26 10:33:00,27.5,10.8,30.23,NNW,342,6.9,6.9,49,0.00,OVC,,0.00,WeatherDisplay:10.37,2013-01-26 15:33:00,
2013-01-26 10:38:00,27.7,10.5,30.23,NNW,345,4.6,4.6,48,0.00,OVC,,0.00,WeatherDisplay:10.37,2013-01-26 15:38:00,
2013-01-26 10:43:00,27.9,10.7,30.23,WNW,291,6.9,6.9,48,0.00,OVC,,0.00,WeatherDisplay:10.37,2013-01-26 15:43:00,
2013-01-26 10:48:00,27.9,11.1,30.23,WSW,250,6.9,6.9,49,0.00,OVC,,0.00,WeatherDisplay:10.37,2013-01-26 15:48:00,
2013-01-26 10:53:00,28.0,10.8,30.23,NW,315,5.8,5.8,48,0.00,OVC,,0.00,WeatherDisplay:10.37,2013-01-26 15:53:00,
2013-01-26 10:58:00,27.9,10.7,30.26,NNW,329,6.9,6.9,48,0.00,OVC,,0.00,WeatherDisplay:10.37,2013-01-26 15:58:00,
2013-01-26 11:03:00,27.9,10.2,30.26,NNW,341,6.9,6.9,47,0.00,BKN,OVC,0.00,WeatherDisplay:10.37,2013-01-26 16:03:00,
2013-01-26 11:08:00,28.2,11.0,30.26,WNW,286,9.2,9.2,48,0.00,BKN,OVC,0.00,WeatherDisplay:10.37,2013-01-26 16:08:00,
2013-01-26 11:13:00,28.6,11.3,30.26,NNW,335,6.9,6.9,48,0.00,BKN,OVC,0.00,WeatherDisplay:10.37,2013-01-26 16:13:00,
2013-01-26 11:18:00,28.6,10.9,30.26,North,4,5.8,5.8,47,0.00,BKN,OVC,0.00,WeatherDisplay:10.37,2013-01-26 16:18:00,
2013-01-26 11:23:00,28.4,10.7,30.26,West,266,12.7,12.7,47,0.00,BKN,OVC,0.00,WeatherDisplay:10.37,2013-01-26 16:23:00,
2013-01-26 11:28:00,28.4,10.7,30.26,NW,308,8.1,8.1,47,0.00,BKN,OVC,0.00,WeatherDisplay:10.37,2013-01-26 16:28:00,
2013-01-26 11:33:00,28.4,10.7,30.26,West,274,12.7,12.7,47,0.00,BKN,OVC,0.00,WeatherDisplay:10.37,2013-01-26 16:33:00,
2013-01-26 11:38:00,28.6,10.9,30.26,NW,317,11.5,11.5,47,0.00,BKN,OVC,0.00,WeatherDisplay:10.37,2013-01-26 16:38:00,
2013-01-26 11:43:00,28.8,10.6,30.23,NNW,334,9.2,9.2,46,0.00,BKN,OVC,0.00,WeatherDisplay:10.37,2013-01-26 16:43:00,
2013-01-26 11:48:00,28.9,10.7,30.23,NNW,330,15.0,15.0,46,0.00,BKN,OVC,0.00,WeatherDisplay:10.37,2013-01-26 16:48:00,
2013-01-26 11:53:00,29.1,10.9,30.23,NW,316,11.5,11.5,46,0.00,BKN,OVC,0.00,WeatherDisplay:10.37,2013-01-26 16:53:00,
2013-01-26 11:58:00,29.1,10.9,30.23,NNW,337,8.1,8.1,46,0.00,BKN,OVC,0.00,WeatherDisplay:10.37,2013-01-26 16:58:00,
2013-01-26 12:03:00,29.3,11.1,30.23,NW,318,8.7,8.7,46,0.00,BKN,OVC,0.00,WeatherDisplay:10.37,2013-01-26 17:03:00,
2013-01-26 12:09:00,29.5,11.2,30.23,West,259,6.9,6.9,46,0.00,BKN,OVC,0.00,WeatherDisplay:10.37,2013-01-26 17:09:00,
2013-01-26 12:14:00,29.7,11.4,30.20,NNW,332,6.9,6.9,46,0.00,BKN,OVC,0.00,WeatherDisplay:10.37,2013-01-26 17:14:00,
2013-01-26 12:19:00,29.8,11.1,30.20,NW,316,11.5,11.5,45,0.00,BKN,OVC,0.00,WeatherDisplay:10.37,2013-01-26 17:19:00,
2013-01-26 12:24:00,29.8,11.1,30.20,NW,314,6.9,6.9,45,0.00,BKN,OVC,0.00,WeatherDisplay:10.37,2013-01-26 17:24:00,
2013-01-26 12:29:00,29.8,11.1,30.20,WNW,302,5.8,5.8,45,0.00,BKN,OVC,0.00,WeatherDisplay:10.37,2013-01-26 17:29:00,
2013-01-26 12:34:00,30.0,11.2,30.20,NW,310,9.2,9.2,45,0.00,BKN,OVC,0.00,WeatherDisplay:10.37,2013-01-26 17:34:00,
2013-01-26 12:39:00,30.0,11.2,30.20,West,276,9.2,9.2,45,0.00,BKN,OVC,0.00,WeatherDisplay:10.37,2013-01-26 17:39:00,
2013-01-26 12:44:00,30.0,11.2,30.20,WNW,283,9.5,9.5,45,0.00,BKN,OVC,0.00,WeatherDisplay:10.37,2013-01-26 17:44:00,
2013-01-26 12:49:00,30.2,11.4,30.20,NW,322,6.9,6.9,45,0.00,BKN,OVC,0.00,WeatherDisplay:10.37,2013-01-26 17:49:00,
2013-01-26 12:54:00,30.6,11.2,30.20,NW,313,8.7,8.7,44,0.00,BKN,OVC,0.00,WeatherDisplay:10.37,2013-01-26 17:54:00,
2013-01-26 12:59:00,30.6,11.2,30.20,WSW,244,5.8,5.8,44,0.00,BKN,OVC,0.00,WeatherDisplay:10.37,2013-01-26 17:59:00,
2013-01-26 13:04:00,30.6,11.2,30.20,NNW,331,9.2,9.2,44,0.00,SCT,OVC,0.00,WeatherDisplay:10.37,2013-01-26 18:04:00,
2013-01-26 13:09:00,30.7,11.4,30.20,NW,322,8.1,8.1,44,0.00,SCT,OVC,0.00,WeatherDisplay:10.37,2013-01-26 18:09:00,
2013-01-26 13:14:00,31.1,11.7,30.20,West,262,9.5,9.5,44,0.00,SCT,OVC,0.00,WeatherDisplay:10.37,2013-01-26 18:14:00,
2013-01-26 13:19:00,31.1,11.7,30.20,NNE,20,8.7,8.7,44,0.00,SCT,OVC,0.00,WeatherDisplay:10.37,2013-01-26 18:19:00,
2013-01-26 13:24:00,31.1,11.7,30.20,NNW,343,10.4,10.4,44,0.00,SCT,OVC,0.00,WeatherDisplay:10.37,2013-01-26 18:24:00,
2013-01-26 13:29:00,31.1,11.7,30.20,NNW,328,6.9,6.9,44,0.00,SCT,OVC,0.00,WeatherDisplay:10.37,2013-01-26 18:29:00,
2013-01-26 13:34:00,30.9,11.0,30.20,NNW,348,10.4,10.4,43,0.00,SCT,OVC,0.00,WeatherDisplay:10.37,2013-01-26 18:34:00,
2013-01-26 13:39:00,30.9,11.0,30.20,NNW,342,14.1,14.1,43,0.00,SCT,OVC,0.00,WeatherDisplay:10.37,2013-01-26 18:39:00,
2013-01-26 13:44:00,30.6,10.7,30.20,North,0,10.4,10.4,43,0.00,SCT,OVC,0.00,WeatherDisplay:10.37,2013-01-26 18:44:00,
2013-01-26 13:49:00,30.6,10.7,30.20,NW,320,10.4,10.4,43,0.00,SCT,OVC,0.00,WeatherDisplay:10.37,2013-01-26 18:49:00,
2013-01-26 13:54:00,30.6,11.2,30.20,NW,326,11.5,11.5,44,0.00,SCT,OVC,0.00,WeatherDisplay:10.37,2013-01-26 18:54:00,
2013-01-26 13:59:00,30.7,11.4,30.20,North,1,5.8,5.8,44,0.00,SCT,OVC,0.00,WeatherDisplay:10.37,2013-01-26 18:59:00,
2013-01-26 14:04:00,30.7,11.4,30.20,NW,317,12.7,12.7,44,0.00,SCT,OVC,0.00,WeatherDisplay:10.37,2013-01-26 19:04:00,
2013-01-26 14:09:00,30.7,11.4,30.20,NW,311,9.2,9.2,44,0.00,SCT,OVC,0.00,WeatherDisplay:10.37,2013-01-26 19:09:00,
2013-01-26 14:14:00,31.1,11.7,30.20,North,7,5.8,5.8,44,0.00,SCT,OVC,0.00,WeatherDisplay:10.37,2013-01-26 19:14:00,
2013-01-26 14:19:00,31.5,12.0,30.20,North,353,6.9,6.9,44,0.00,SCT,OVC,0.00,WeatherDisplay:10.37,2013-01-26 19:19:00,
2013-01-26 14:24:00,32.0,12.5,30.20,NNE,15,12.1,12.1,44,0.00,SCT,OVC,0.00,WeatherDisplay:10.37,2013-01-26 19:24:00,
2013-01-26 14:29:00,31.8,12.4,30.23,North,353,6.9,6.9,44,0.00,SCT,OVC,0.00,WeatherDisplay:10.37,2013-01-26 19:29:00,
2013-01-26 14:34:00,31.6,11.7,30.23,NNW,330,9.2,9.2,43,0.00,SCT,OVC,0.00,WeatherDisplay:10.37,2013-01-26 19:34:00,
2013-01-26 14:39:00,31.8,12.4,30.23,NNE,30,9.2,9.2,44,0.00,SCT,OVC,0.00,WeatherDisplay:10.37,2013-01-26 19:39:00,
2013-01-26 14:44:00,31.8,12.4,30.23,WSW,257,6.9,6.9,44,0.00,SCT,OVC,0.00,WeatherDisplay:10.37,2013-01-26 19:44:00,
2013-01-26 14:49:00,32.0,12.5,30.23,NNW,329,5.8,5.8,44,0.00,SCT,OVC,0.00,WeatherDisplay:10.37,2013-01-26 19:49:00,
2013-01-26 14:54:00,31.8,12.4,30.23,North,353,10.4,10.4,44,0.00,SCT,OVC,0.00,WeatherDisplay:10.37,2013-01-26 19:54:00,
2013-01-26 14:59:00,31.5,11.5,30.23,North,6,10.4,10.4,43,0.00,SCT,OVC,0.00,WeatherDisplay:10.37,2013-01-26 19:59:00,
2013-01-26 15:04:00,31.1,11.7,30.23,NW,317,10.4,10.4,44,0.00,SCT,OVC,0.00,WeatherDisplay:10.37,2013-01-26 20:04:00,
2013-01-26 15:10:00,31.1,11.7,30.23,West,269,4.6,4.6,44,0.00,SCT,OVC,0.00,WeatherDisplay:10.37,2013-01-26 20:10:00,
2013-01-26 15:15:00,31.1,11.7,30.23,NW,318,10.4,10.4,44,0.00,SCT,OVC,0.00,WeatherDisplay:10.37,2013-01-26 20:15:00,
2013-01-26 15:20:00,31.1,11.7,30.23,NW,309,8.1,8.1,44,0.00,SCT,OVC,0.00,WeatherDisplay:10.37,2013-01-26 20:20:00,
2013-01-26 15:25:00,31.1,11.7,30.23,WNW,302,8.1,8.1,44,0.00,SCT,OVC,0.00,WeatherDisplay:10.37,2013-01-26 20:25:00,
2013-01-26 15:30:00,31.1,11.7,30.23,West,262,9.2,9.2,44,0.00,SCT,OVC,0.00,WeatherDisplay:10.37,2013-01-26 20:30:00,
2013-01-26 15:35:00,30.9,11.5,30.23,NW,316,9.2,9.2,44,0.00,SCT,OVC,0.00,WeatherDisplay:10.37,2013-01-26 20:35:00,
2013-01-26 15:40:00,30.9,11.5,30.23,WSW,252,9.2,9.2,44,0.00,SCT,OVC,0.00,WeatherDisplay:10.37,2013-01-26 20:40:00,
2013-01-26 15:45:00,30.9,11.5,30.23,NW,307,8.7,8.7,44,0.00,SCT,OVC,0.00,WeatherDisplay:10.37,2013-01-26 20:45:00,
2013-01-26 15:50:00,30.9,11.5,30.23,North,353,5.8,5.8,44,0.00,SCT,OVC,0.00,WeatherDisplay:10.37,2013-01-26 20:50:00,
2013-01-26 15:55:00,30.9,11.5,30.23,WNW,289,6.9,6.9,44,0.00,SCT,OVC,0.00,WeatherDisplay:10.37,2013-01-26 20:55:00,
2013-01-26 16:00:00,30.7,11.4,30.23,NW,321,6.2,6.2,44,0.00,SCT,OVC,0.00,WeatherDisplay:10.37,2013-01-26 21:00:00,
2013-01-26 16:05:00,30.6,11.2,30.23,NW,320,5.8,5.8,44,0.00,SCT,OVC,0.00,WeatherDisplay:10.37,2013-01-26 21:05:00,
2013-01-26 16:10:00,30.6,11.2,30.23,NE,51,3.5,3.5,44,0.00,SCT,OVC,0.00,WeatherDisplay:10.37,2013-01-26 21:10:00,
2013-01-26 16:15:00,30.4,11.0,30.23,NW,307,6.9,6.9,44,0.00,SCT,OVC,0.00,WeatherDisplay:10.37,2013-01-26 21:15:00,
2013-01-26 16:20:00,30.4,11.0,30.23,NW,310,6.7,6.7,44,0.00,SCT,OVC,0.00,WeatherDisplay:10.37,2013-01-26 21:20:00,
2013-01-26 16:25:00,30.2,10.9,30.23,NW,325,5.8,5.8,44,0.00,SCT,OVC,0.00,WeatherDisplay:10.37,2013-01-26 21:25:00,
2013-01-26 16:30:00,30.0,11.2,30.26,NW,318,9.2,9.2,45,0.00,SCT,OVC,0.00,WeatherDisplay:10.37,2013-01-26 21:30:00,
2013-01-26 16:35:00,29.8,11.1,30.26,NNW,334,6.9,6.9,45,0.00,SCT,OVC,0.00,WeatherDisplay:10.37,2013-01-26 21:35:00,
2013-01-26 16:41:00,29.5,10.7,30.26,NW,318,6.2,6.2,45,0.00,SCT,OVC,0.00,WeatherDisplay:10.37,2013-01-26 21:41:00,
2013-01-26 16:46:00,29.5,10.7,30.26,NW,322,6.9,6.9,45,0.00,SCT,OVC,0.00,WeatherDisplay:10.37,2013-01-26 21:46:00,
2013-01-26 16:51:00,29.3,10.6,30.26,North,353,4.6,4.6,45,0.00,SCT,OVC,0.00,WeatherDisplay:10.37,2013-01-26 21:51:00,
2013-01-26 16:56:00,29.1,10.4,30.26,NNW,330,6.9,6.9,45,0.00,SCT,OVC,0.00,WeatherDisplay:10.37,2013-01-26 21:56:00,
2013-01-26 17:01:00,28.9,10.2,30.26,NW,319,5.8,5.8,45,0.00,SCT,OVC,0.00,WeatherDisplay:10.37,2013-01-26 22:01:00,
2013-01-26 17:06:00,28.9,10.2,30.26,NNW,339,4.6,4.6,45,0.00,SCT,OVC,0.00,WeatherDisplay:10.37,2013-01-26 22:06:00,
2013-01-26 17:11:00,28.8,10.1,30.26,North,8,4.6,4.6,45,0.00,SCT,OVC,0.00,WeatherDisplay:10.37,2013-01-26 22:11:00,
2013-01-26 17:16:00,28.6,9.9,30.26,NNW,338,3.6,3.6,45,0.00,SCT,OVC,0.00,WeatherDisplay:10.37,2013-01-26 22:16:00,
2013-01-26 17:21:00,28.4,10.2,30.26,NNW,341,2.6,0.0,46,0.00,SCT,OVC,0.00,WeatherDisplay:10.37,2013-01-26 22:21:00,
2013-01-26 17:26:00,28.2,10.1,30.26,NNW,330,3.5,0.0,46,0.00,SCT,OVC,0.00,WeatherDisplay:10.37,2013-01-26 22:26:00,
2013-01-26 17:31:00,28.0,9.9,30.29,NW,308,0.0,0.0,46,0.00,SCT,OVC,0.00,WeatherDisplay:10.37,2013-01-26 22:31:00,
2013-01-26 17:36:00,28.0,9.9,30.29,NW,325,3.5,3.5,46,0.00,SCT,OVC,0.00,WeatherDisplay:10.37,2013-01-26 22:36:00,
2013-01-26 17:41:00,27.9,10.2,30.29,NW,325,0.0,0.0,47,0.00,SCT,OVC,0.00,WeatherDisplay:10.37,2013-01-26 22:41:00,
2013-01-26 17:46:00,27.5,9.9,30.29,NW,325,0.0,0.0,47,0.00,SCT,OVC,0.00,WeatherDisplay:10.37,2013-01-26 22:46:00,
2013-01-26 17:51:00,27.3,9.7,30.29,North,353,3.5,3.5,47,0.00,SCT,OVC,0.00,WeatherDisplay:10.37,2013-01-26 22:51:00,
2013-01-26 17:56:00,27.3,9.7,30.29,North,353,0.0,0.0,47,0.00,SCT,OVC,0.00,WeatherDisplay:10.37,2013-01-26 22:56:00,
2013-01-26 18:01:00,27.0,9.4,30.29,NNW,327,2.3,0.0,47,0.00,SCT,OVC,0.00,WeatherDisplay:10.37,2013-01-26 23:01:00,
2013-01-26 18:06:00,27.0,9.4,30.29,NNW,328,0.0,0.0,47,0.00,SCT,OVC,0.00,WeatherDisplay:10.37,2013-01-26 23:06:00,
2013-01-26 18:11:00,26.6,9.5,30.29,NNW,327,0.0,0.0,48,0.00,SCT,OVC,0.00,WeatherDisplay:10.37,2013-01-26 23:11:00,
2013-01-26 18:16:00,26.4,9.4,30.29,NNW,327,0.0,0.0,48,0.00,SCT,OVC,0.00,WeatherDisplay:10.37,2013-01-26 23:16:00,
2013-01-26 18:21:00,26.4,9.4,30.29,NNW,327,0.0,0.0,48,0.00,SCT,OVC,0.00,WeatherDisplay:10.37,2013-01-26 23:21:00,
2013-01-26 18:26:00,26.2,9.6,30.29,NNW,327,0.0,0.0,49,0.00,SCT,OVC,0.00,WeatherDisplay:10.37,2013-01-26 23:26:00,
2013-01-26 18:31:00,26.1,9.5,30.29,NNW,327,0.0,0.0,49,0.00,SCT,OVC,0.00,WeatherDisplay:10.37,2013-01-26 23:31:00,
2013-01-26 18:37:00,25.9,9.8,30.29,NNW,328,0.0,0.0,50,0.00,SCT,OVC,0.00,WeatherDisplay:10.37,2013-01-26 23:37:00,
2013-01-26 18:42:00,25.7,9.6,30.29,NNW,327,0.0,0.0,50,0.00,SCT,OVC,0.00,WeatherDisplay:10.37,2013-01-26 23:42:00,
2013-01-26 18:47:00,25.5,9.9,30.32,NNW,327,0.0,0.0,51,0.00,SCT,OVC,0.00,WeatherDisplay:10.37,2013-01-26 23:47:00,
2013-01-26 18:52:00,25.3,9.7,30.32,NNW,328,0.0,0.0,51,0.00,SCT,OVC,0.00,WeatherDisplay:10.37,2013-01-26 23:52:00,
2013-01-26 18:57:00,25.3,10.1,30.32,NNW,328,0.0,0.0,52,0.00,SCT,OVC,0.00,WeatherDisplay:10.37,2013-01-26 23:57:00,
2013-01-26 19:02:00,25.2,9.5,30.32,NNW,327,0.0,0.0,51,0.00,SCT,OVC,0.00,WeatherDisplay:10.37,2013-01-27 00:02:00,
2013-01-26 19:07:00,25.0,9.4,30.32,NNW,327,0.0,0.0,51,0.00,SCT,OVC,0.00,WeatherDisplay:10.37,2013-01-27 00:07:00,
2013-01-26 19:12:00,24.8,9.6,30.32,NNW,327,0.0,0.0,52,0.00,SCT,OVC,0.00,WeatherDisplay:10.37,2013-01-27 00:12:00,
2013-01-26 19:17:00,24.6,9.5,30.32,NNW,328,0.0,0.0,52,0.00,SCT,OVC,0.00,WeatherDisplay:10.37,2013-01-27 00:17:00,
2013-01-26 19:22:00,24.6,9.5,30.32,NNW,327,0.0,0.0,52,0.00,SCT,OVC,0.00,WeatherDisplay:10.37,2013-01-27 00:22:00,
2013-01-26 19:27:00,24.4,9.7,30.32,NNW,327,0.0,0.0,53,0.00,SCT,OVC,0.00,WeatherDisplay:10.37,2013-01-27 00:27:00,
2013-01-26 19:32:00,24.3,9.6,30.32,NNW,327,0.0,0.0,53,0.00,SCT,OVC,0.00,WeatherDisplay:10.37,2013-01-27 00:32:00,
2013-01-26 19:37:00,24.3,9.6,30.32,NNW,327,0.0,0.0,53,0.00,SCT,OVC,0.00,WeatherDisplay:10.37,2013-01-27 00:37:00,
2013-01-26 19:42:00,24.1,9.8,30.32,NNW,327,0.0,0.0,54,0.00,SCT,OVC,0.00,WeatherDisplay:10.37,2013-01-27 00:42:00,
2013-01-26 19:47:00,23.9,9.6,30.32,NNW,328,0.0,0.0,54,0.00,SCT,OVC,0.00,WeatherDisplay:10.37,2013-01-27 00:47:00,
2013-01-26 19:52:00,23.7,9.9,30.32,NNW,327,0.0,0.0,55,0.00,SCT,OVC,0.00,WeatherDisplay:10.37,2013-01-27 00:52:00,
2013-01-26 19:57:00,23.5,9.7,30.32,NNW,327,0.0,0.0,55,0.00,SCT,OVC,0.00,WeatherDisplay:10.37,2013-01-27 00:57:00,
2013-01-26 20:02:00,23.5,10.1,30.32,NNW,327,0.0,0.0,56,0.00,SCT,OVC,0.00,WeatherDisplay:10.37,2013-01-27 01:02:00,
2013-01-26 20:07:00,23.4,10.0,30.32,NNW,328,0.0,0.0,56,0.00,SCT,OVC,0.00,WeatherDisplay:10.37,2013-01-27 01:07:00,
2013-01-26 20:12:00,23.2,9.4,30.32,NNW,327,0.0,0.0,55,0.00,SCT,OVC,0.00,WeatherDisplay:10.37,2013-01-27 01:12:00,
2013-01-26 20:17:00,23.0,9.6,30.35,NNW,327,0.0,0.0,56,0.00,SCT,OVC,0.00,WeatherDisplay:10.37,2013-01-27 01:17:00,
2013-01-26 20:22:00,22.8,9.4,30.35,NNW,327,0.0,0.0,56,0.00,SCT,OVC,0.00,WeatherDisplay:10.37,2013-01-27 01:22:00,
2013-01-26 20:27:00,22.8,9.4,30.35,NNW,328,0.0,0.0,56,0.00,SCT,OVC,0.00,WeatherDisplay:10.37,2013-01-27 01:27:00,
2013-01-26 20:32:00,22.6,9.3,30.32,NNW,327,0.0,0.0,56,0.00,SCT,OVC,0.00,WeatherDisplay:10.37,2013-01-27 01:32:00,
2013-01-26 20:37:00,22.6,9.7,30.32,NNW,327,0.0,0.0,57,0.00,SCT,OVC,0.00,WeatherDisplay:10.37,2013-01-27 01:37:00,
2013-01-26 20:42:00,22.6,9.7,30.35,NNW,328,0.0,0.0,57,0.00,SCT,OVC,0.00,WeatherDisplay:10.37,2013-01-27 01:42:00,
2013-01-26 20:47:00,22.6,10.1,30.35,NNW,327,0.0,0.0,58,0.00,SCT,OVC,0.00,WeatherDisplay:10.37,2013-01-27 01:47:00,
2013-01-26 20:52:00,22.6,10.1,30.35,NNW,328,0.0,0.0,58,0.00,SCT,OVC,0.00,WeatherDisplay:10.37,2013-01-27 01:52:00,
2013-01-26 20:57:00,22.6,10.1,30.35,NNW,327,0.0,0.0,58,0.00,SCT,OVC,0.00,WeatherDisplay:10.37,2013-01-27 01:57:00,
2013-01-26 21:02:00,22.6,10.1,30.35,NNW,328,0.0,0.0,58,0.00,SCT,OVC,0.00,WeatherDisplay:10.37,2013-01-27 02:02:00,
2013-01-26 21:07:00,22.5,9.9,30.35,NNW,327,0.0,0.0,58,0.00,SCT,OVC,0.00,WeatherDisplay:10.37,2013-01-27 02:07:00,
2013-01-26 21:12:00,22.3,9.7,30.35,NNW,328,0.0,0.0,58,0.00,SCT,OVC,0.00,WeatherDisplay:10.37,2013-01-27 02:12:00,
2013-01-26 21:17:00,22.3,9.7,30.35,NNW,327,0.0,0.0,58,0.00,SCT,OVC,0.00,WeatherDisplay:10.37,2013-01-27 02:17:00,
2013-01-26 21:22:00,22.3,9.7,30.35,NNW,327,0.0,0.0,58,0.00,SCT,OVC,0.00,WeatherDisplay:10.37,2013-01-27 02:22:00,
2013-01-26 21:27:00,22.3,9.7,30.35,NNW,328,0.0,0.0,58,0.00,SCT,OVC,0.00,WeatherDisplay:10.37,2013-01-27 02:27:00,
2013-01-26 21:32:00,22.3,9.7,30.38,NNW,328,0.0,0.0,58,0.00,SCT,OVC,0.00,WeatherDisplay:10.37,2013-01-27 02:32:00,
2013-01-26 21:37:00,22.1,9.6,30.38,NNW,327,0.0,0.0,58,0.00,SCT,OVC,0.00,WeatherDisplay:10.37,2013-01-27 02:37:00,
2013-01-26 21:42:00,21.9,9.4,30.38,NNW,328,0.0,0.0,58,0.00,SCT,OVC,0.00,WeatherDisplay:10.37,2013-01-27 02:42:00,
2013-01-26 21:47:00,21.7,9.2,30.38,NNW,327,0.0,0.0,58,0.00,SCT,OVC,0.00,WeatherDisplay:10.37,2013-01-27 02:47:00,
2013-01-26 21:52:00,21.6,9.0,30.38,NNW,328,0.0,0.0,58,0.00,SCT,OVC,0.00,WeatherDisplay:10.37,2013-01-27 02:52:00,
2013-01-26 21:57:00,21.4,9.3,30.38,NNW,328,0.0,0.0,59,0.00,SCT,OVC,0.00,WeatherDisplay:10.37,2013-01-27 02:57:00,
2013-01-26 22:02:00,21.2,9.5,30.38,NNW,328,0.0,0.0,60,0.00,SCT,OVC,0.00,WeatherDisplay:10.37,2013-01-27 03:02:00,
2013-01-26 22:07:00,21.2,9.5,30.38,NNW,328,0.0,0.0,60,0.00,SCT,OVC,0.00,WeatherDisplay:10.37,2013-01-27 03:07:00,
2013-01-26 22:12:00,21.2,9.5,30.38,NNW,327,0.0,0.0,60,0.00,SCT,OVC,0.00,WeatherDisplay:10.37,2013-01-27 03:12:00,
2013-01-26 22:17:00,21.2,9.8,30.38,NNW,327,0.0,0.0,61,0.00,SCT,OVC,0.00,WeatherDisplay:10.37,2013-01-27 03:17:00,
2013-01-26 22:22:00,21.2,9.8,30.38,NNW,327,0.0,0.0,61,0.00,SCT,OVC,0.00,WeatherDisplay:10.37,2013-01-27 03:22:00,
2013-01-26 22:27:00,21.2,9.8,30.41,NNW,327,0.0,0.0,61,0.00,SCT,OVC,0.00,WeatherDisplay:10.37,2013-01-27 03:27:00,
2013-01-26 22:32:00,21.0,10.0,30.41,NNW,327,0.0,0.0,62,0.00,SCT,OVC,0.00,WeatherDisplay:10.37,2013-01-27 03:32:00,
2013-01-26 22:37:00,21.2,10.2,30.41,NNW,327,0.0,0.0,62,0.00,SCT,OVC,0.00,WeatherDisplay:10.37,2013-01-27 03:37:00,
2013-01-26 22:42:00,21.2,10.2,30.41,NNW,327,0.0,0.0,62,0.00,SCT,OVC,0.00,WeatherDisplay:10.37,2013-01-27 03:42:00,
2013-01-26 22:47:00,21.0,9.7,30.41,NNW,327,0.0,0.0,61,0.00,SCT,OVC,0.00,WeatherDisplay:10.37,2013-01-27 03:47:00,
2013-01-26 22:52:00,20.7,9.7,30.41,NNW,327,0.0,0.0,62,0.00,SCT,OVC,0.00,WeatherDisplay:10.37,2013-01-27 03:52:00,
2013-01-26 22:57:00,20.5,9.9,30.41,NNW,327,0.0,0.0,63,0.00,SCT,OVC,0.00,WeatherDisplay:10.37,2013-01-27 03:57:00,
2013-01-26 23:02:00,20.7,10.0,30.41,NNW,328,0.0,0.0,63,0.00,CLR,OVC,0.00,WeatherDisplay:10.37,2013-01-27 04:02:00,
2013-01-26 23:07:00,20.8,10.2,30.41,NNW,327,0.0,0.0,63,0.00,CLR,OVC,0.00,WeatherDisplay:10.37,2013-01-27 04:07:00,
2013-01-26 23:12:00,21.0,10.7,30.41,NNW,327,0.0,0.0,64,0.00,CLR,OVC,0.00,WeatherDisplay:10.37,2013-01-27 04:12:00,
2013-01-26 23:17:00,20.8,10.6,30.41,NNW,327,0.0,0.0,64,0.00,CLR,OVC,0.00,WeatherDisplay:10.37,2013-01-27 04:17:00,
2013-01-26 23:22:00,20.7,10.0,30.41,NNW,328,0.0,0.0,63,0.00,CLR,OVC,0.00,WeatherDisplay:10.37,2013-01-27 04:22:00,
2013-01-26 23:27:00,20.7,10.0,30.41,NNW,328,0.0,0.0,63,0.00,CLR,OVC,0.00,WeatherDisplay:10.37,2013-01-27 04:27:00,
2013-01-26 23:32:00,20.5,9.9,30.41,NNW,327,0.0,0.0,63,0.00,CLR,OVC,0.00,WeatherDisplay:10.37,2013-01-27 04:32:00,
2013-01-26 23:37:00,20.3,9.7,30.41,NNW,328,0.0,0.0,63,0.00,CLR,OVC,0.00,WeatherDisplay:10.37,2013-01-27 04:37:00,
2013-01-26 23:42:00,20.1,9.5,30.41,NNW,328,0.0,0.0,63,0.00,CLR,OVC,0.00,WeatherDisplay:10.37,2013-01-27 04:42:00,
2013-01-26 23:47:00,20.1,9.5,30.41,NNW,327,0.0,0.0,63,0.00,CLR,OVC,0.00,WeatherDisplay:10.37,2013-01-27 04:47:00,
2013-01-26 23:52:00,20.3,10.1,30.41,NNW,327,0.0,0.0,64,0.00,CLR,OVC,0.00,WeatherDisplay:10.37,2013-01-27 04:52:00,
2013-01-26 23:57:00,20.5,10.2,30.41,NNW,328,0.0,0.0,64,0.00,CLR,OVC,0.00,WeatherDisplay:10.37,2013-01-27 04:57:00,